Tiempo atmosférico en la estación meteorológica de Silleda, Pontevedra (422 m.)



Fecha
DESCASC
Temp. máxima en grados centígrados (hora)
DESCASC
Temp. mínima en grados centígrados (hora)
DESCASC
Temp. media en grados centígrados
DESCASC
Racha de viento máxima en m/sg (hora)
DESCASC
Velocidad máxima media en intervalos de 10 minutos(hora)
DESCASC
Precipitaciones diarias en mm
DESCASC
Precipitaciones de 00:00 a 06:00 en mm
DESCASC
Precipitaciones de 06:00 a 12:00 en mm
DESCASC
Precipitaciones de 12:00 a 18:00 en mm
DESCASC
Precipitaciones de 18:00 a 24:00 en mm
DESCASC
15-08-2019 27.3 (16:40) 13.4 (07:20) 20.3 7.22 (17:30) 3.61 (16:00) 0 0 0 0 0
14-08-2019 26.6 (19:10) 12.1 (00:00) 19.4 5.83 (15:40) 3.06 (14:20) 0 0 0 0 0
13-08-2019 25.6 (18:00) 8.7 (00:00) 17.2 6.11 (18:20) 3.33 (18:50) 0 0 0 0 0
12-08-2019 21.8 (17:50) 9.5 (00:00) 15.6 5.28 (14:30) 2.78 (14:30) 0 0 0 0 0
11-08-2019 21.5 (13:30) 10.9 (00:00) 16.2 7.78 (15:00) 3.61 (15:00) 7.2 0 0 4.8 2.4
10-08-2019 23.4 (16:10) 13.5 (00:00) 18.4 7.78 (18:40) 3.89 (16:40) 0 0 0 0 0
09-08-2019 21.9 (17:50) 14.5 (00:00) 18.2 12.5 (05:40) 3.33 (15:30) 1.8 0.8 0.6 0.4 0
08-08-2019 25.9 (15:10) 17.9 (00:00) 21.9 13.06 (16:10) 5.28 (21:20) 12.4 0 0 2.4 10
07-08-2019 22.5 (18:20) 15.1 (00:00) 18.8 9.17 (20:40) 4.17 (19:40) 1.6 0 1.2 0.4 0
06-08-2019 22.8 (12:40) 16.5 (00:00) 19.6 6.39 (19:00) 3.33 (18:30) 0.6 0 0 0.6 0
05-08-2019 28.1 (16:40) 12.9 (00:00) 20.5 8.06 (19:00) 4.44 (17:30) 0 0 0 0 0
04-08-2019 27.6 (18:40) 15.6 (00:00) 21.6 7.22 (15:40) 3.89 (16:50) 0 0 0 0 0
03-08-2019 29.6 (18:20) 12.4 (00:00) 21 7.22 (16:50) 4.17 (17:20) 0 0 0 0 0
02-08-2019 29.5 (18:40) 13.1 (00:00) 21.3 6.94 (03:30) 3.89 (04:00) 0 0 0 0 0
01-08-2019 28.1 (18:00) 12.5 (00:00) 20.3 6.39 (19:00) 3.33 (20:40) 0 0 0 0 0
31-07-2019 25.9 (17:00) 9.5 (00:00) 17.7 6.11 (17:00) 3.33 (18:40) 0 0 0 0 0
30-07-2019 23.2 (18:30) 10.7 (00:00) 17 6.39 (18:40) 3.61 (19:40) 0 0 0 0 0
29-07-2019 22 (16:50) 11.7 (00:00) 16.8 9.44 (15:30) 4.17 (17:40) 2.6 2 0 0 0.6
28-07-2019 27.5 (16:40) 9.7 (00:00) 18.6 6.67 (16:20) 3.33 (07:50) 0 0 0 0 0
27-07-2019 23.9 (17:30) 12.4 (00:00) 18.1 7.22 (17:40) 3.33 (07:10) 4.6 0.6 1.8 2.2 0
26-07-2019 24.1 (17:50) 13.6 (00:00) 18.9 7.22 (14:00) 4.17 (14:20) 0.2 0.2 0 0 0
25-07-2019 22.9 (11:30) 13.8 (00:00) 18.3 8.33 (11:40) 4.17 (10:00) 0.8 0 0 0.8 0
24-07-2019 30.7 (18:10) 13.6 (00:00) 22.2 6.67 (19:10) 3.61 (04:50) 0 0 0 0 0
23-07-2019 29.6 (15:50) 17.1 (00:00) 23.4 7.78 (04:30) 4.17 (04:30) 0 0 0 0 0
22-07-2019 33.8 (18:30) 16.8 (00:00) 25.3 6.39 (08:40) 3.89 (20:20) 0 0 0 0 0
21-07-2019 29.4 (16:20) 12.1 (00:00) 20.8 6.94 (19:00) 3.89 (18:10) 0 0 0 0 0
20-07-2019 26.8 (16:20) 14.4 (00:00) 20.6 7.22 (15:30) 3.89 (19:40) 0 0 0 0 0
19-07-2019 30.5 (16:50) 14.3 (00:00) 22.4 7.78 (18:00) 4.17 (19:00) 0 0 0 0 0
18-07-2019 28.1 (16:50) 11.6 (00:00) 19.9 7.5 (18:30) 3.89 (19:00) 0 0 0 0 0

Gráficas

Temp. máximas Temp. mínimas Temp. medias Precipitaciones Rachas de viento máximas Velocidades máximas media en intervalos de 10 minutos

Datos horarios

Fecha y hora oficial Temperatura (ºC) Velocidad del viento (km/h) Dirección del viento Racha (km/h) Dirección de racha Precipitación (mm) Presión (hPa) Tendencia (hPa) Humedad (%)
2019-08-16 23:00:00 17 3 Oeste 13 Noroeste 0 -- -- 91
2019-08-16 22:00:00 18 3 Noroeste 16 Noroeste 0 -- -- 87
2019-08-16 21:00:00 19.8 9 Noroeste 21 Noroeste 0 -- -- 81
2019-08-16 20:00:00 24 9 Noroeste 20 Noroeste 0 -- -- 66
2019-08-16 19:00:00 26.3 6 Noroeste 22 Noroeste 0 -- -- 53
2019-08-16 18:00:00 27.9 4 Oeste 22 Noroeste 0 -- -- 45
2019-08-16 17:00:00 26.6 13 Noroeste 26 Noroeste 0 -- -- 50
2019-08-16 16:00:00 26.8 14 Noroeste 24 Noroeste 0 -- -- 52
2019-08-16 15:00:00 26.5 8 Noroeste 22 Noroeste 0 -- -- 54
2019-08-16 14:00:00 24.9 8 Noroeste 16 Noroeste 0 -- -- 65
2019-08-16 13:00:00 23.3 7 Noroeste 14 Noroeste 0 -- -- 66
2019-08-16 12:00:00 21.7 5 Noroeste 13 Noroeste 0 -- -- 71
2019-08-16 11:00:00 20.6 5 Noroeste 10 Noroeste 0 -- -- 76
2019-08-16 10:00:00 20.6 0 Calma 5 Noroeste 0 -- -- 75
2019-08-16 09:00:00 14 0 Calma 5 Este 0 -- -- 97
2019-08-16 08:00:00 13.1 4 Este 6 Este 0 -- -- 97
2019-08-16 07:00:00 12.7 3 Este 8 Este 0 -- -- 97
2019-08-16 06:00:00 12.5 2 Sur 12 Sudeste 0 -- -- 97
2019-08-16 05:00:00 13.3 9 Sudeste 14 Sudeste 0 -- -- 97
2019-08-16 04:00:00 13.3 4 Este 8 Sudeste 0 -- -- 96
2019-08-16 03:00:00 13.6 3 Sudeste 13 Este 0 -- -- 95
2019-08-16 02:00:00 14.2 2 Sudeste 5 Nordeste 0 -- -- 93
2019-08-16 01:00:00 14.6 3 Este 5 Este 0 -- -- 92
2019-08-16 00:00:00 15 0 Calma 5 Noroeste 0 -- -- 93
2019-08-15 23:00:00 16.3 0 Calma 6 Noroeste 0 -- -- 89
2019-08-15 22:00:00 18.4 3 Noroeste 15 Noroeste 0 -- -- 82
2019-08-15 21:00:00 21.2 10 Noroeste 21 Noroeste 0 -- -- 71
2019-08-15 20:00:00 24.9 12 Noroeste 22 Noroeste 0 -- -- 60
2019-08-15 19:00:00 26.6 10 Noroeste 22 Noroeste 0 -- -- 57
2019-08-15 18:00:00 26.9 13 Noroeste 26 Noroeste 0 -- -- 56
2019-08-15 17:00:00 27.2 11 Noroeste 22 Noroeste 0 -- -- 55
2019-08-15 16:00:00 25.9 13 Noroeste 22 Noroeste 0 -- -- 59
2019-08-15 15:00:00 25.5 8 Noroeste 21 Norte 0 -- -- 56
2019-08-15 14:00:00 24.7 6 Noroeste 17 Noroeste 0 -- -- 56
2019-08-15 13:00:00 23.7 9 Noroeste 17 Noroeste 0 -- -- 62
2019-08-15 12:00:00 23.3 4 Noroeste 13 Noroeste 0 -- -- 66
2019-08-15 11:00:00 23.5 4 Sur 11 Sur 0 -- -- 60
2019-08-15 10:00:00 19.1 6 Sudeste 17 Sudeste 0 -- -- 76
2019-08-15 09:00:00 14.9 10 Sudeste 16 Sudeste 0 -- -- 94
2019-08-15 08:00:00 13.9 8 Sudeste 13 Sudeste 0 -- -- 98
2019-08-15 07:00:00 14 2 Este 8 Sudeste 0 -- -- 97
2019-08-15 06:00:00 14.9 0 Calma 4 Sudeste 0 -- -- 97
2019-08-15 05:00:00 15 0 Calma 5 Norte 0 -- -- 97
2019-08-15 04:00:00 15.2 0 Calma 3 Noroeste 0 -- -- 97
2019-08-15 03:00:00 15.3 3 Noroeste 9 Noroeste 0 -- -- 97
2019-08-15 02:00:00 15.7 4 Noroeste 8 Noroeste 0 -- -- 96
2019-08-15 01:00:00 16.4 3 Noroeste 6 Noroeste 0 -- -- 95
2019-08-15 00:00:00 16.2 3 Noroeste 4 Norte 0 -- -- 95
2019-08-14 23:00:00 17.2 2 Noroeste 5 Noroeste 0 -- -- 90
2019-08-14 22:00:00 18.7 5 Noroeste 12 Noroeste 0 -- -- 88
2019-08-14 21:00:00 21.4 7 Noroeste 17 Noroeste 0 -- -- 78
2019-08-14 20:00:00 24.2 8 Noroeste 16 Noroeste 0 -- -- 67
2019-08-14 19:00:00 24.7 3 Noroeste 15 Norte 0 -- -- 67
2019-08-14 18:00:00 21 7 Noroeste 18 Noroeste 0 -- -- 84
2019-08-14 17:00:00 21.9 8 Noroeste 17 Noroeste 0 -- -- 79
2019-08-14 16:00:00 21.2 5 Noroeste 21 Noroeste 0 -- -- 82
2019-08-14 15:00:00 21.7 5 Noroeste 20 Noroeste 0 -- -- 79
2019-08-14 14:00:00 21.4 8 Noroeste 16 Noroeste 0 -- -- 77
2019-08-14 13:00:00 21.5 4 Noroeste 10 Noroeste 0 -- -- 77
2019-08-14 12:00:00 20.2 4 Noroeste 14 Noroeste 0 -- -- 82
2019-08-14 11:00:00 19.8 4 Este 9 Sudeste 0 -- -- 69
2019-08-14 10:00:00 17.5 4 Este 5 Este 0 -- -- 72
2019-08-14 09:00:00 14.3 0 Calma 9 Este 0 -- -- 83
2019-08-14 08:00:00 12.6 7 Este 14 Este 0 -- -- 88
2019-08-14 07:00:00 13.1 10 Este 13 Este 0 -- -- 81
2019-08-14 06:00:00 12.7 3 Este 12 Este 0 -- -- 87
2019-08-14 05:00:00 12.7 5 Este 10 Este 0 -- -- 92
2019-08-14 04:00:00 12.8 4 Este 10 Nordeste 0 -- -- 94
2019-08-14 03:00:00 13.1 4 Este 15 Este 0 -- -- 92
2019-08-14 02:00:00 13.2 4 Sudeste 9 Sudeste 0 -- -- 93
2019-08-14 01:00:00 13.9 5 Sudeste 8 Sudeste 0 -- -- 91
2019-08-14 00:00:00 13.8 0 Calma 3 Sudeste 0 -- -- 92
2019-08-13 23:00:00 14.6 0 Calma 7 Noroeste 0 -- -- 89
2019-08-13 22:00:00 16.4 3 Noroeste 9 Noroeste 0 -- -- 83
2019-08-13 21:00:00 19.4 3 Norte 16 Noroeste 0 -- -- 71
2019-08-13 20:00:00 22.8 10 Noroeste 21 Norte 0 -- -- 61
2019-08-13 19:00:00 24.4 9 Noroeste 22 Noroeste 0 -- -- 49
2019-08-13 18:00:00 25.6 8 Noroeste 20 Noroeste 0 -- -- 45
2019-08-13 17:00:00 25.3 7 Noroeste 19 Noroeste 0 -- -- 42
2019-08-13 16:00:00 24.3 9 Noroeste 18 Noroeste 0 -- -- 53
2019-08-13 15:00:00 22.8 10 Noroeste 19 Noroeste 0 -- -- 56
2019-08-13 14:00:00 22.7 4 Norte 14 Noroeste 0 -- -- 57
2019-08-13 13:00:00 23.1 5 Sudeste 19 Este 0 -- -- 51
2019-08-13 12:00:00 20.8 5 Sudeste 12 Este 0 -- -- 56
2019-08-13 11:00:00 17.7 7 Sudeste 11 Sudeste 0 -- -- 64
2019-08-13 10:00:00 15.7 4 Sur 10 Sudeste 0 -- -- 74
2019-08-13 09:00:00 10.2 6 Sudeste 11 Sudeste 0 -- -- 90
2019-08-13 08:00:00 9.2 6 Este 10 Este 0 -- -- 94
2019-08-13 07:00:00 8.7 3 Este 5 Nordeste 0 -- -- 93
2019-08-13 06:00:00 9.3 2 Este 4 Nordeste 0 -- -- 94
2019-08-13 05:00:00 9.4 0 Calma 4 Este 0 -- -- 93
2019-08-13 04:00:00 10.4 0 Calma 6 Sudeste 0 -- -- 88
2019-08-13 03:00:00 11 5 Sudeste 10 Este 0 -- -- 90
2019-08-13 02:00:00 11.1 2 Sudeste 10 Este 0 -- -- 88
2019-08-13 01:00:00 11.7 3 Sudeste 9 Sudeste 0 -- -- 92
2019-08-13 00:00:00 12.2 0 Calma 6 Nordeste 0 -- -- 89
2019-08-12 23:00:00 13.5 0 Calma 5 Noroeste 0 -- -- 89
2019-08-12 22:00:00 14.1 3 Noroeste 12 Noroeste 0 -- -- 86
2019-08-12 21:00:00 16.3 5 Noroeste 16 Noroeste 0 -- -- 73
2019-08-12 20:00:00 17.7 5 Noroeste 16 Noroeste 0 -- -- 70
2019-08-12 19:00:00 19.5 9 Noroeste 18 Noroeste 0 -- -- 60
2019-08-12 18:00:00 21.5 5 Norte 15 Noroeste 0 -- -- 54
2019-08-12 17:00:00 18.3 4 Norte 15 Noroeste 0 -- -- 65
2019-08-12 16:00:00 18.1 5 Noroeste 16 Noroeste 0 -- -- 62
2019-08-12 15:00:00 19.1 5 Noroeste 19 Noroeste 0 -- -- 64
2019-08-12 14:00:00 20.4 4 Norte 16 Sudeste 0 -- -- 60
2019-08-12 13:00:00 20.1 5 Nordeste 17 Este 0 -- -- 56
2019-08-12 12:00:00 19.1 4 Nordeste 14 Este 0 -- -- 65
2019-08-12 11:00:00 17.1 3 Este 9 Sudeste 0 -- -- 74
2019-08-12 10:00:00 13 5 Sudeste 10 Sudeste 0 -- -- 92
2019-08-12 09:00:00 12.3 0 Calma 9 Este 0 -- -- 99
2019-08-12 08:00:00 9.7 6 Este 8 Nordeste 0 -- -- 98
2019-08-12 07:00:00 9.5 4 Este 10 Este 0 -- -- 98
2019-08-12 06:00:00 10.2 5 Este 9 Nordeste 0 -- -- 98
2019-08-12 05:00:00 10.6 0 Calma 6 Nordeste 0 -- -- 98
2019-08-12 04:00:00 11 0 Calma 4 Nordeste 0 -- -- 97
2019-08-12 03:00:00 11.5 2 Este 6 Este 0 -- -- 97
2019-08-12 02:00:00 12.1 0 Calma 3 Nordeste 0 -- -- 97
2019-08-12 01:00:00 12.1 0 Calma 3 Noroeste 0 -- -- 97
2019-08-12 00:00:00 12.2 0 Calma 3 Norte 0 -- -- 96
2019-08-11 23:00:00 12.8 0 Calma 3 Nordeste 0 -- -- 96
2019-08-11 22:00:00 13.4 0 Calma 3 Este 0 -- -- 94
2019-08-11 21:00:00 14 0 Calma 3 Sur 1.4 -- -- 93
2019-08-11 20:00:00 14.3 3 Sudeste 5 Sudeste 0.6 -- -- 91
2019-08-11 19:00:00 15.3 4 Norte 14 Nordeste 0.4 -- -- 86
2019-08-11 18:00:00 16.6 2 Norte 9 Sudeste 0 -- -- 83
2019-08-11 17:00:00 15.5 3 Este 12 Nordeste 4.8 -- -- 85
2019-08-11 16:00:00 16.5 6 Norte 18 Nordeste 0 -- -- 77
2019-08-11 15:00:00 18.7 13 Noroeste 28 Noroeste 0 -- -- 73
2019-08-11 14:00:00 16.5 6 Noroeste 20 Noroeste 0 -- -- 79
2019-08-11 13:00:00 19.6 4 Oeste 17 Noroeste 0 -- -- 59
2019-08-11 12:00:00 17.4 5 Noroeste 17 Noroeste 0 -- -- 72
2019-08-11 11:00:00 17.5 5 Noroeste 9 Noroeste 0 -- -- 73
2019-08-11 10:00:00 17.2 2 Oeste 5 Sudeste 0 -- -- 73
2019-08-11 09:00:00 13 4 Sur 11 Sudeste 0 -- -- 94
2019-08-11 08:00:00 11.2 5 Este 8 Este 0 -- -- 97
2019-08-11 07:00:00 11.6 0 Calma 3 Nordeste 0 -- -- 96
2019-08-11 06:00:00 12 0 Calma 3 Nordeste 0 -- -- 97
2019-08-11 05:00:00 12.6 0 Calma 2 Nordeste 0 -- -- 96
2019-08-11 04:00:00 12.4 0 Calma 2 Nordeste 0 -- -- 96
2019-08-11 03:00:00 13.2 0 Calma 2 Nordeste 0 -- -- 95
2019-08-11 02:00:00 13.5 0 Calma 2 Norte 0 -- -- 93
2019-08-11 01:00:00 14 0 Calma 2 Noroeste 0 -- -- 92
2019-08-11 00:00:00 14.7 0 Calma 5 Noroeste 0 -- -- 89
2019-08-10 23:00:00 14.2 0 Calma 5 Noroeste 0 -- -- 89
2019-08-10 22:00:00 15 3 Noroeste 11 Noroeste 0 -- -- 84
2019-08-10 21:00:00 16.4 5 Noroeste 12 Oeste 0 -- -- 77
2019-08-10 20:00:00 17.9 8 Noroeste 20 Oeste 0 -- -- 69
2019-08-10 19:00:00 21.8 8 Noroeste 28 Noroeste 0 -- -- 54
2019-08-10 18:00:00 21.2 12 Noroeste 26 Noroeste 0 -- -- 57
2019-08-10 17:00:00 21.8 12 Noroeste 26 Noroeste 0 -- -- 56
2019-08-10 16:00:00 23.1 13 Noroeste 27 Noroeste 0 -- -- 56
2019-08-10 15:00:00 21.7 6 Noroeste 27 Noroeste 0 -- -- 58
2019-08-10 14:00:00 22.6 6 Noroeste 17 Oeste 0 -- -- 54
2019-08-10 13:00:00 19.8 6 Noroeste 17 Oeste 0 -- -- 65
2019-08-10 12:00:00 21.2 4 Noroeste 14 Norte 0 -- -- 59
2019-08-10 11:00:00 18.7 3 Oeste 10 Noroeste 0 -- -- 68
2019-08-10 10:00:00 16.6 3 Oeste 9 Noroeste 0 -- -- 83
2019-08-10 09:00:00 14.6 2 Sudeste 9 Noroeste 0 -- -- 89
2019-08-10 08:00:00 13.5 3 Sur 8 Sur 0 -- -- 92
2019-08-10 07:00:00 13.6 4 Sudeste 8 Sudeste 0 -- -- 93
2019-08-10 06:00:00 14.2 0 Calma 10 Sur 0 -- -- 92
2019-08-10 05:00:00 14.2 2 Sudoeste 11 Noroeste 0 -- -- 92
2019-08-10 04:00:00 14.4 0 Calma 5 Sudoeste 0 -- -- 92
2019-08-10 03:00:00 14.7 2 Sur 8 Sudeste 0 -- -- 91
2019-08-10 02:00:00 14.7 0 Calma 8 Noroeste 0 -- -- 92
2019-08-10 01:00:00 14.4 2 Sudoeste 16 Sur 0 -- -- 91
2019-08-10 00:00:00 14.5 2 Sur 12 Oeste 0 -- -- 92
2019-08-09 23:00:00 14.9 0 Calma 11 Oeste 0 -- -- 91
2019-08-09 22:00:00 15.8 2 Sur 15 Sur 0 -- -- 88
2019-08-09 21:00:00 17.4 4 Sur 18 Sur 0 -- -- 80
2019-08-09 20:00:00 17.5 4 Sur 16 Sur 0 -- -- 82
2019-08-09 19:00:00 18.9 9 Noroeste 30 Noroeste 0 -- -- 74
2019-08-09 18:00:00 21 5 Sur 22 Sudoeste 0 -- -- 68
2019-08-09 17:00:00 18 10 Noroeste 27 Oeste 0 -- -- 82
2019-08-09 16:00:00 18.7 10 Noroeste 28 Noroeste 0.2 -- -- 81
2019-08-09 15:00:00 20.1 9 Oeste 33 Oeste 0 -- -- 75
2019-08-09 14:00:00 21.8 8 Sudoeste 29 Sur 0.2 -- -- 70
2019-08-09 13:00:00 19.3 6 Sur 28 Sudoeste 0 -- -- 82
2019-08-09 12:00:00 21.7 8 Sudoeste 28 Noroeste 0.4 -- -- 74
2019-08-09 11:00:00 17 6 Sudoeste 24 Sur 0.2 -- -- 89
2019-08-09 10:00:00 20.1 7 Sudoeste 32 Sudoeste 0 -- -- 75
2019-08-09 09:00:00 17.1 8 Sur 30 Sudoeste 0 -- -- 85
2019-08-09 08:00:00 16.5 6 Sudoeste 28 Sur 0 -- -- 87
2019-08-09 07:00:00 16.3 7 Sur 27 Sudeste 0 -- -- 87
2019-08-09 06:00:00 16.5 8 Sur 45 Oeste 0 -- -- 87
2019-08-09 05:00:00 16.3 6 Sudoeste 26 Sur 0 -- -- 88
2019-08-09 04:00:00 15.8 6 Sudoeste 32 Sur 0 -- -- 91
2019-08-09 03:00:00 16.1 8 Sudoeste 24 Sur 0 -- -- 92
2019-08-09 02:00:00 16.3 4 Sur 27 Sur 0.2 -- -- 97
2019-08-09 01:00:00 16.9 5 Sur 27 Oeste 0.6 -- -- 97
2019-08-09 00:00:00 18.9 6 Oeste 31 Oeste 2.6 -- -- 97
2019-08-08 23:00:00 19.7 7 Sudoeste 29 Sur 3.2 -- -- 96
2019-08-08 22:00:00 20.1 10 Sur 44 Sur 0.8 -- -- 94
2019-08-08 21:00:00 20.1 13 Sur 32 Sudeste 0 -- -- 93
2019-08-08 20:00:00 20.2 13 Sur 42 Sur 0.2 -- -- 93
2019-08-08 19:00:00 19.8 12 Sur 38 Sur 3.2 -- -- 95
2019-08-08 18:00:00 20.1 14 Sur 35 Sur 1.4 -- -- 93
2019-08-08 17:00:00 23 14 Sur 47 Sudoeste 0 -- -- 77
2019-08-08 16:00:00 24 15 Sur 45 Sur 0 -- -- 77
2019-08-08 15:00:00 24.8 12 Sur 33 Sur 0 -- -- 77
2019-08-08 14:00:00 24.7 8 Sudoeste 29 Oeste 0 -- -- 82
2019-08-08 13:00:00 22.1 10 Sur 33 Sur 1 -- -- 91
2019-08-08 12:00:00 21.8 8 Sur 21 Sur 0 -- -- 86
2019-08-08 11:00:00 21.3 7 Sudeste 22 Sudeste 0 -- -- 84
2019-08-08 10:00:00 21.4 5 Sur 24 Sur 0 -- -- 81
2019-08-08 09:00:00 20.6 4 Sur 22 Sur 0 -- -- 87
2019-08-08 08:00:00 19.4 4 Sur 21 Sur 0 -- -- 87
2019-08-08 07:00:00 19.2 3 Sudeste 20 Sudeste 0 -- -- 90
2019-08-08 06:00:00 19.3 8 Sur 15 Sur 0 -- -- 90
2019-08-08 05:00:00 19.2 7 Sur 33 Sur 0 -- -- 92
2019-08-08 04:00:00 19 9 Sur 35 Sudeste 0 -- -- 92
2019-08-08 03:00:00 18 8 Sudeste 16 Sudeste 0 -- -- 94
2019-08-08 02:00:00 18.2 8 Sudeste 25 Sur 0 -- -- 92
2019-08-08 01:00:00 19.1 13 Sur 34 Sur 0 -- -- 86
2019-08-08 00:00:00 18.8 11 Sur 31 Sur 0 -- -- 84
2019-08-07 23:00:00 18.4 13 Sur 25 Sudoeste 0 -- -- 86
2019-08-07 22:00:00 18.5 8 Sudeste 25 Sur 0 -- -- 90
2019-08-07 21:00:00 19.9 10 Sur 33 Sur 0 -- -- 80
2019-08-07 20:00:00 20 13 Sur 29 Sur 0 -- -- 82
2019-08-07 19:00:00 21 10 Sur 30 Sur 0 -- -- 80
2019-08-07 18:00:00 20.8 5 Sur 20 Sur 0 -- -- 84
2019-08-07 17:00:00 19.6 6 Sur 23 Sudeste 0 -- -- 89
2019-08-07 16:00:00 19.7 8 Sur 25 Sudeste 0 -- -- 85
2019-08-07 15:00:00 19.7 6 Sur 23 Sur 0.2 -- -- 87
2019-08-07 14:00:00 20 10 Sur 21 Sudeste 0 -- -- 87
2019-08-07 13:00:00 19 10 Sudeste 21 Sudeste 0.2 -- -- 93
2019-08-07 12:00:00 17.9 10 Sudeste 21 Sudeste 1 -- -- 95
2019-08-07 11:00:00 19 12 Sudeste 20 Sudeste 0 -- -- 90
2019-08-07 10:00:00 17.3 7 Sudeste 14 Sudeste 0.2 -- -- 94
2019-08-07 09:00:00 16.7 9 Sudeste 15 Sudeste 0 -- -- 93
2019-08-07 08:00:00 15.7 9 Sudeste 13 Sudeste 0 -- -- 95
2019-08-07 07:00:00 15.8 5 Este 9 Sudeste 0 -- -- 96
2019-08-07 06:00:00 15.2 0 Calma 7 Sudeste 0 -- -- 97
2019-08-07 05:00:00 15.3 0 Calma 6 Sudeste 0 -- -- 98
2019-08-07 04:00:00 15.6 0 Calma 10 Este 0 -- -- 97
2019-08-07 03:00:00 16.2 4 Este 12 Sudeste 0 -- -- 98
2019-08-07 02:00:00 16.4 9 Sudeste 14 Sudeste 0 -- -- 98
2019-08-07 01:00:00 16.3 4 Sudeste 8 Sudeste 0 -- -- 98
2019-08-07 00:00:00 17.1 2 Nordeste 12 Noroeste 0 -- -- 98
2019-08-06 23:00:00 17.5 4 Noroeste 8 Norte 0 -- -- 97
2019-08-06 22:00:00 17.6 0 Calma 18 Noroeste 0 -- -- 97
2019-08-06 21:00:00 18.3 9 Noroeste 18 Noroeste 0 -- -- 96
2019-08-06 20:00:00 19.4 0 Calma 17 Sudeste 0 -- -- 88
2019-08-06 19:00:00 19 12 Sudeste 23 Sudeste 0 -- -- 88
2019-08-06 18:00:00 19.3 8 Sur 16 Sudeste 0.2 -- -- 91
2019-08-06 17:00:00 19.6 2 Noroeste 12 Oeste 0.4 -- -- 91
2019-08-06 16:00:00 19.2 4 Noroeste 14 Oeste 0 -- -- 88
2019-08-06 15:00:00 20.1 4 Noroeste 15 Oeste 0 -- -- 81
2019-08-06 14:00:00 22 4 Oeste 17 Oeste 0 -- -- 73
2019-08-06 13:00:00 22.6 4 Sudoeste 15 Oeste 0 -- -- 70
2019-08-06 12:00:00 21.5 4 Oeste 13 Oeste 0 -- -- 76
2019-08-06 11:00:00 20.7 5 Noroeste 11 Sudeste 0 -- -- 77
2019-08-06 10:00:00 19.2 5 Sur 10 Sudeste 0 -- -- 82
2019-08-06 09:00:00 17.5 2 Sudeste 3 Sur 0 -- -- 89
2019-08-06 08:00:00 16.7 0 Calma 5 Sudeste 0 -- -- 92
2019-08-06 07:00:00 16.7 0 Calma 6 Sur 0 -- -- 94
2019-08-06 06:00:00 16.6 3 Sudeste 5 Este 0 -- -- 96
2019-08-06 05:00:00 16.7 2 Oeste 8 Sur 0 -- -- 96
2019-08-06 04:00:00 17 2 Noroeste 6 Noroeste 0 -- -- 95
2019-08-06 03:00:00 17.8 0 Calma 6 Noroeste 0 -- -- 89
2019-08-06 02:00:00 18 0 Calma 5 Noroeste 0 -- -- 90
2019-08-06 01:00:00 18 0 Calma 5 Noroeste 0 -- -- 90
2019-08-06 00:00:00 18.2 0 Calma 9 Noroeste 0 -- -- 89
2019-08-05 23:00:00 18.4 0 Calma 4 Noroeste 0 -- -- 89
2019-08-05 22:00:00 18.9 4 Noroeste 10 Noroeste 0 -- -- 85
2019-08-05 21:00:00 21 5 Noroeste 18 Norte 0 -- -- 77
2019-08-05 20:00:00 24.6 9 Noroeste 24 Noroeste 0 -- -- 63
2019-08-05 19:00:00 25.5 13 Noroeste 29 Noroeste 0 -- -- 60
2019-08-05 18:00:00 27.3 14 Noroeste 27 Noroeste 0 -- -- 54
2019-08-05 17:00:00 27.9 10 Noroeste 24 Noroeste 0 -- -- 52
2019-08-05 16:00:00 25.9 11 Noroeste 23 Noroeste 0 -- -- 58
2019-08-05 15:00:00 25.7 9 Noroeste 20 Noroeste 0 -- -- 56
2019-08-05 14:00:00 25.2 10 Noroeste 18 Noroeste 0 -- -- 58
2019-08-05 13:00:00 25 8 Noroeste 17 Noroeste 0 -- -- 54
2019-08-05 12:00:00 24.9 4 Norte 12 Noroeste 0 -- -- 51
2019-08-05 11:00:00 22.6 4 Norte 9 Noroeste 0 -- -- 58
2019-08-05 10:00:00 19.9 4 Este 10 Este 0 -- -- 75
2019-08-05 09:00:00 14.4 5 Sudeste 13 Sudeste 0 -- -- 96
2019-08-05 08:00:00 13.4 7 Sudeste 11 Sudeste 0 -- -- 95
2019-08-05 07:00:00 12.9 5 Este 9 Este 0 -- -- 95
2019-08-05 06:00:00 13.5 0 Calma 8 Este 0 -- -- 92
2019-08-05 05:00:00 14.1 6 Sudeste 9 Este 0 -- -- 93
2019-08-05 04:00:00 14.3 3 Este 5 Este 0 -- -- 92
2019-08-05 03:00:00 14.6 0 Calma 3 Noroeste 0 -- -- 91
2019-08-05 02:00:00 16.1 0 Calma 2 Noroeste 0 -- -- 87
2019-08-05 01:00:00 16.6 0 Calma 8 Norte 0 -- -- 85
2019-08-05 00:00:00 17.2 4 Noroeste 12 Noroeste 0 -- -- 83
2019-08-04 23:00:00 17.3 0 Calma 8 Noroeste 0 -- -- 81
2019-08-04 22:00:00 18.2 3 Noroeste 14 Noroeste 0 -- -- 77
2019-08-04 21:00:00 21.6 8 Noroeste 19 Noroeste 0 -- -- 67
2019-08-04 20:00:00 24.9 9 Noroeste 22 Noroeste 0 -- -- 58
2019-08-04 19:00:00 26.5 10 Noroeste 26 Noroeste 0 -- -- 53
2019-08-04 18:00:00 27.4 10 Noroeste 26 Noroeste 0 -- -- 52
2019-08-04 17:00:00 25.6 11 Noroeste 26 Noroeste 0 -- -- 54
2019-08-04 16:00:00 26.4 12 Noroeste 26 Noroeste 0 -- -- 52
2019-08-04 15:00:00 26.2 6 Noroeste 23 Noroeste 0 -- -- 53
2019-08-04 14:00:00 25.4 4 Norte 15 Noroeste 0 -- -- 52
2019-08-04 13:00:00 24.2 6 Noroeste 15 Norte 0 -- -- 60
2019-08-04 12:00:00 22.4 4 Noroeste 14 Noroeste 0 -- -- 66
2019-08-04 11:00:00 20.1 8 Noroeste 12 Noroeste 0 -- -- 77
2019-08-04 10:00:00 20 2 Oeste 5 Noroeste 0 -- -- 77
2019-08-04 09:00:00 17.4 2 Sudoeste 5 Noroeste 0 -- -- 87
2019-08-04 08:00:00 16 0 Calma 2 Sudeste 0 -- -- 94
2019-08-04 07:00:00 15.6 0 Calma 2 Sudeste 0 -- -- 93
2019-08-04 06:00:00 16 0 Calma 5 Noroeste 0 -- -- 93
2019-08-04 05:00:00 16.2 0 Calma 2 Noroeste 0 -- -- 91
2019-08-04 04:00:00 16.5 0 Calma 3 Oeste 0 -- -- 90
2019-08-04 03:00:00 16.4 0 Calma 4 Noroeste 0 -- -- 90
2019-08-04 02:00:00 16.5 0 Calma 5 Oeste 0 -- -- 90
2019-08-04 01:00:00 16.5 0 Calma 6 Noroeste 0 -- -- 88
2019-08-04 00:00:00 18 6 Noroeste 12 Noroeste 0 -- -- 82
2019-08-03 23:00:00 18.9 3 Noroeste 13 Oeste 0 -- -- 82
2019-08-03 22:00:00 19.7 8 Noroeste 15 Oeste 0 -- -- 79
2019-08-03 21:00:00 21.4 9 Noroeste 18 Noroeste 0 -- -- 75
2019-08-03 20:00:00 25 12 Noroeste 22 Noroeste 0 -- -- 65
2019-08-03 19:00:00 26.1 13 Noroeste 24 Noroeste 0 -- -- 63
2019-08-03 18:00:00 28.4 8 Noroeste 26 Noroeste 0 -- -- 48
2019-08-03 17:00:00 28.8 12 Noroeste 26 Noroeste 0 -- -- 50
2019-08-03 16:00:00 27.3 12 Noroeste 24 Noroeste 0 -- -- 53
2019-08-03 15:00:00 26.5 12 Noroeste 25 Noroeste 0 -- -- 53
2019-08-03 14:00:00 25.4 13 Noroeste 25 Noroeste 0 -- -- 51
2019-08-03 13:00:00 25.8 8 Noroeste 17 Noroeste 0 -- -- 37
2019-08-03 12:00:00 24.2 6 Noroeste 10 Noroeste 0 -- -- 54
2019-08-03 11:00:00 23.4 3 Noroeste 6 Noroeste 0 -- -- 65
2019-08-03 10:00:00 22.3 3 Sudeste 9 Este 0 -- -- 63
2019-08-03 09:00:00 15.9 3 Este 9 Este 0 -- -- 89
2019-08-03 08:00:00 12.6 6 Este 10 Este 0 -- -- 96
2019-08-03 07:00:00 13.3 4 Este 6 Sudeste 0 -- -- 97
2019-08-03 06:00:00 13 0 Calma 4 Sudeste 0 -- -- 96
2019-08-03 05:00:00 13.2 0 Calma 7 Este 0 -- -- 95
2019-08-03 04:00:00 13.7 4 Este 8 Este 0 -- -- 96
2019-08-03 03:00:00 14.6 0 Calma 4 Este 0 -- -- 96
2019-08-03 02:00:00 15.4 0 Calma 3 Este 0 -- -- 94
2019-08-03 01:00:00 15.9 0 Calma 3 Norte 0 -- -- 92
2019-08-03 00:00:00 16.8 0 Calma 6 Noroeste 0 -- -- 91
2019-08-02 23:00:00 18.5 2 Noroeste 13 Norte 0 -- -- 85
2019-08-02 22:00:00 20.9 7 Noroeste 18 Noroeste 0 -- -- 78
2019-08-02 21:00:00 24.1 12 Noroeste 24 Noroeste 0 -- -- 69
2019-08-02 20:00:00 28.2 8 Noroeste 20 Noroeste 0 -- -- 48
2019-08-02 19:00:00 28.3 13 Noroeste 24 Norte 0 -- -- 40
2019-08-02 18:00:00 29 10 Noroeste 24 Oeste 0 -- -- 43
2019-08-02 17:00:00 28.4 12 Noroeste 24 Norte 0 -- -- 41
2019-08-02 16:00:00 27.6 13 Noroeste 24 Noroeste 0 -- -- 54
2019-08-02 15:00:00 26.4 9 Noroeste 20 Noroeste 0 -- -- 54
2019-08-02 14:00:00 25.8 8 Noroeste 16 Noroeste 0 -- -- 58
2019-08-02 13:00:00 25.1 5 Noroeste 13 Noroeste 0 -- -- 59
2019-08-02 12:00:00 24.2 3 Sudoeste 9 Sudeste 0 -- -- 61
2019-08-02 11:00:00 19.8 8 Sudeste 16 Sur 0 -- -- 74
2019-08-02 10:00:00 15.4 11 Sur 20 Sudeste 0 -- -- 93
2019-08-02 09:00:00 13.9 8 Sur 15 Sudeste 0 -- -- 98
2019-08-02 08:00:00 13.1 8 Sudeste 21 Sudeste 0 -- -- 98
2019-08-02 07:00:00 13.5 8 Sur 15 Sudeste 0 -- -- 97
2019-08-02 06:00:00 14.3 6 Sur 12 Sur 0 -- -- 96
2019-08-02 05:00:00 14.4 7 Sudeste 22 Sudeste 0 -- -- 96
2019-08-02 04:00:00 14.6 14 Sur 25 Sudeste 0 -- -- 95
2019-08-02 03:00:00 15 10 Sudeste 21 Sudeste 0 -- -- 93
2019-08-02 02:00:00 14.9 6 Sudeste 13 Sudeste 0 -- -- 92
2019-08-02 01:00:00 15 4 Sudeste 8 Sudeste 0 -- -- 90
2019-08-02 00:00:00 16.2 0 Calma 9 Este 0 -- -- 86
2019-08-01 23:00:00 18.5 4 Nordeste 10 Nordeste 0 -- -- 78
2019-08-01 22:00:00 19.3 6 Noroeste 14 Noroeste 0 -- -- 79
2019-08-01 21:00:00 22.2 10 Noroeste 23 Noroeste 0 -- -- 69
2019-08-01 20:00:00 24.8 10 Noroeste 22 Noroeste 0 -- -- 62
2019-08-01 19:00:00 26.8 12 Noroeste 23 Noroeste 0 -- -- 54
2019-08-01 18:00:00 28.1 8 Noroeste 20 Noroeste 0 -- -- 46
2019-08-01 17:00:00 27.3 5 Norte 20 Noroeste 0 -- -- 48
2019-08-01 16:00:00 26.7 6 Norte 15 Nordeste 0 -- -- 51
2019-08-01 15:00:00 25.4 6 Norte 16 Noroeste 0 -- -- 53
2019-08-01 14:00:00 23.6 7 Noroeste 17 Sudeste 0 -- -- 59
2019-08-01 13:00:00 22.5 5 Norte 13 Nordeste 0 -- -- 62
2019-08-01 12:00:00 22 7 Sudeste 15 Este 0 -- -- 65
2019-08-01 11:00:00 18.3 6 Este 18 Este 0 -- -- 75
2019-08-01 10:00:00 16.6 0 Calma 6 Noroeste 0 -- -- 86
2019-08-01 09:00:00 15.8 2 Sudeste 9 Sudeste 0 -- -- 86
2019-08-01 08:00:00 13.9 5 Este 10 Sudeste 0 -- -- 91
2019-08-01 07:00:00 14.1 3 Sudeste 12 Este 0 -- -- 91
2019-08-01 06:00:00 14 4 Sudeste 15 Sudeste 0 -- -- 92
2019-08-01 05:00:00 13.4 4 Este 8 Este 0 -- -- 94
2019-08-01 04:00:00 13.4 5 Este 10 Este 0 -- -- 94
2019-08-01 03:00:00 12.5 0 Calma 5 Este 0 -- -- 93
2019-08-01 02:00:00 13.7 3 Sudeste 10 Este 0 -- -- 90
2019-08-01 01:00:00 13.8 0 Calma 7 Este 0 -- -- 88
2019-08-01 00:00:00 15.1 5 Este 13 Nordeste 0 -- -- 82
2019-07-31 23:00:00 15.5 0 Calma 6 Nordeste 0 -- -- 84
2019-07-31 22:00:00 17 0 Calma 8 Noroeste 0 -- -- 77
2019-07-31 21:00:00 19.3 6 Noroeste 14 Norte 0 -- -- 67
2019-07-31 20:00:00 22.8 8 Noroeste 20 Noroeste 0 -- -- 57
2019-07-31 19:00:00 22.7 6 Norte 22 Noroeste 0 -- -- 57
2019-07-31 18:00:00 22.3 9 Noroeste 19 Noroeste 0 -- -- 59
2019-07-31 17:00:00 25.9 8 Noroeste 22 Noroeste 0 -- -- 48
2019-07-31 16:00:00 24.2 5 Nordeste 13 Este 0 -- -- 45
2019-07-31 15:00:00 23.6 5 Nordeste 19 Este 0 -- -- 42
2019-07-31 14:00:00 22.4 4 Nordeste 14 Noroeste 0 -- -- 53
2019-07-31 13:00:00 19.5 4 Sudeste 12 Nordeste 0 -- -- 65
2019-07-31 12:00:00 18.5 4 Norte 10 Noroeste 0 -- -- 67
2019-07-31 11:00:00 18.1 5 Este 17 Sudeste 0 -- -- 67
2019-07-31 10:00:00 15.8 3 Sudeste 7 Sudeste 0 -- -- 72
2019-07-31 09:00:00 12.2 2 Sudeste 5 Este 0 -- -- 87
2019-07-31 08:00:00 9.9 0 Calma 6 Sudeste 0 -- -- 93
2019-07-31 07:00:00 10 4 Sudeste 10 Sudeste 0 -- -- 94
2019-07-31 06:00:00 10.1 5 Sudeste 10 Sudeste 0 -- -- 94
2019-07-31 05:00:00 10.4 6 Este 10 Sudeste 0 -- -- 92
2019-07-31 04:00:00 9.8 0 Calma 6 Sudeste 0 -- -- 95
2019-07-31 03:00:00 10.5 2 Este 5 Nordeste 0 -- -- 92
2019-07-31 02:00:00 10.1 0 Calma 4 Este 0 -- -- 91
2019-07-31 01:00:00 11.2 0 Calma 4 Norte 0 -- -- 89
2019-07-31 00:00:00 11.8 0 Calma 4 Noroeste 0 -- -- 86
2019-07-30 23:00:00 13 0 Calma 12 Nordeste 0 -- -- 79
2019-07-30 22:00:00 14.9 3 Noroeste 16 Noroeste 0 -- -- 73
2019-07-30 21:00:00 18.9 5 Noroeste 15 Noroeste 0 -- -- 60
2019-07-30 20:00:00 20.6 10 Noroeste 22 Noroeste 0 -- -- 54
2019-07-30 19:00:00 22.1 9 Noroeste 23 Noroeste 0 -- -- 51
2019-07-30 18:00:00 22.1 5 Norte 22 Noroeste 0 -- -- 48
2019-07-30 17:00:00 20.2 9 Noroeste 20 Noroeste 0 -- -- 54
2019-07-30 16:00:00 20.5 12 Noroeste 21 Noroeste 0 -- -- 56
2019-07-30 15:00:00 20.4 8 Noroeste 20 Noroeste 0 -- -- 51
2019-07-30 14:00:00 18.8 4 Noroeste 16 Norte 0 -- -- 61
2019-07-30 13:00:00 18.3 5 Norte 16 Noroeste 0 -- -- 62
2019-07-30 12:00:00 17.7 8 Noroeste 17 Noroeste 0 -- -- 66
2019-07-30 11:00:00 15.5 7 Noroeste 14 Noroeste 0 -- -- 79
2019-07-30 10:00:00 15.1 3 Noroeste 6 Oeste 0 -- -- 81
2019-07-30 09:00:00 13.2 0 Calma 2 Sudeste 0 -- -- 92
2019-07-30 08:00:00 12.1 0 Calma 3 Este 0 -- -- 95
2019-07-30 07:00:00 11.6 2 Este 4 Este 0 -- -- 95
2019-07-30 06:00:00 10.9 2 Sudeste 4 Sudeste 0 -- -- 96
2019-07-30 05:00:00 11.2 0 Calma 4 Noroeste 0 -- -- 96
2019-07-30 04:00:00 11 2 Noroeste 5 Norte 0 -- -- 95
2019-07-30 03:00:00 11.7 0 Calma 4 Oeste 0 -- -- 94
2019-07-30 02:00:00 12 2 Noroeste 6 Noroeste 0 -- -- 94
2019-07-30 01:00:00 12 4 Noroeste 7 Noroeste 0 -- -- 94
2019-07-30 00:00:00 11.7 2 Noroeste 4 Noroeste 0 -- -- 95
2019-07-29 23:00:00 12.8 3 Noroeste 12 Noroeste 0 -- -- 91
2019-07-29 22:00:00 13.3 3 Noroeste 12 Noroeste 0 -- -- 93
2019-07-29 21:00:00 14.3 4 Noroeste 15 Noroeste 0 -- -- 88
2019-07-29 20:00:00 14.8 7 Noroeste 26 Noroeste 0.6 -- -- 92
2019-07-29 19:00:00 16.1 12 Noroeste 28 Oeste 0 -- -- 73
2019-07-29 18:00:00 20.7 8 Oeste 33 Noroeste 0 -- -- 59
2019-07-29 17:00:00 20.6 11 Noroeste 29 Noroeste 0 -- -- 58
2019-07-29 16:00:00 20.3 10 Noroeste 34 Noroeste 0 -- -- 62
2019-07-29 15:00:00 20.3 12 Noroeste 33 Noroeste 0 -- -- 61
2019-07-29 14:00:00 20.6 12 Noroeste 31 Noroeste 0 -- -- 58
2019-07-29 13:00:00 19.1 11 Noroeste 26 Norte 0 -- -- 72
2019-07-29 12:00:00 17.3 11 Noroeste 28 Noroeste 0 -- -- 74
2019-07-29 11:00:00 16.8 11 Noroeste 25 Oeste 0 -- -- 76
2019-07-29 10:00:00 16.1 7 Noroeste 19 Oeste 0 -- -- 82
2019-07-29 09:00:00 14.6 7 Noroeste 16 Oeste 0 -- -- 91
2019-07-29 08:00:00 13.5 5 Noroeste 15 Noroeste 0 -- -- 97
2019-07-29 07:00:00 13.5 8 Noroeste 20 Oeste 0 -- -- 97
2019-07-29 06:00:00 14 7 Noroeste 26 Oeste 0.2 -- -- 98
2019-07-29 05:00:00 14.9 3 Oeste 8 Noroeste 1.6 -- -- 97
2019-07-29 04:00:00 14.8 4 Oeste 10 Sudeste 0.2 -- -- 95
2019-07-29 03:00:00 14.9 3 Sur 12 Sur 0 -- -- 91
2019-07-29 02:00:00 14.2 5 Sur 18 Noroeste 0 -- -- 86
2019-07-29 01:00:00 15.9 10 Sur 18 Sur 0 -- -- 60
2019-07-29 00:00:00 14.9 2 Oeste 15 Sur 0 -- -- 67
2019-07-28 23:00:00 15 5 Noroeste 14 Noroeste 0 -- -- 79
2019-07-28 22:00:00 16.1 4 Oeste 18 Noroeste 0 -- -- 74
2019-07-28 21:00:00 21.8 5 Noroeste 18 Oeste 0 -- -- 55
2019-07-28 20:00:00 24.2 6 Oeste 20 Noroeste 0 -- -- 51
2019-07-28 19:00:00 25.8 6 Oeste 21 Oeste 0 -- -- 46
2019-07-28 18:00:00 27 5 Oeste 22 Noroeste 0 -- -- 36
2019-07-28 17:00:00 26.5 7 Oeste 24 Noroeste 0 -- -- 34
2019-07-28 16:00:00 26.9 5 Sudoeste 19 Oeste 0 -- -- 41
2019-07-28 15:00:00 25.6 5 Oeste 20 Noroeste 0 -- -- 41
2019-07-28 14:00:00 24.5 6 Noroeste 20 Noroeste 0 -- -- 44
2019-07-28 13:00:00 24.7 6 Noroeste 17 Noroeste 0 -- -- 51
2019-07-28 12:00:00 22.9 4 Noroeste 12 Sudeste 0 -- -- 56
2019-07-28 11:00:00 20.3 8 Sudeste 17 Sudeste 0 -- -- 66
2019-07-28 10:00:00 16.8 7 Sudeste 15 Sudeste 0 -- -- 74
2019-07-28 09:00:00 11.9 8 Sudeste 19 Sudeste 0 -- -- 92
2019-07-28 08:00:00 9.9 12 Sudeste 18 Sudeste 0 -- -- 95
2019-07-28 07:00:00 10.5 9 Sudeste 15 Sudeste 0 -- -- 94
2019-07-28 06:00:00 11 6 Sudeste 11 Sudeste 0 -- -- 95
2019-07-28 05:00:00 11.6 4 Sudeste 10 Sudeste 0 -- -- 95
2019-07-28 04:00:00 11.5 2 Sudeste 6 Este 0 -- -- 95
2019-07-28 03:00:00 11.4 2 Sudeste 4 Este 0 -- -- 95
2019-07-28 02:00:00 12.3 2 Sudeste 3 Nordeste 0 -- -- 96
2019-07-28 01:00:00 13.2 0 Calma 3 Nordeste 0 -- -- 94
2019-07-28 00:00:00 14.9 0 Calma 5 Nordeste 0 -- -- 91
2019-07-27 23:00:00 15 0 Calma 10 Oeste 0 -- -- 90
2019-07-26 12:00:00 -- -- -- -- -- -- -- -- --
2019-07-26 11:00:00 -- -- -- -- -- -- -- -- --
2019-07-26 10:00:00 16.7 3 Noroeste 10 Noroeste 0 -- -- 86
2019-07-26 09:00:00 14.9 2 Noroeste 6 Noroeste 0 -- -- 96
2019-07-26 08:00:00 14.3 2 Noroeste 7 Noroeste 0 -- -- 97
2019-07-26 07:00:00 14.2 0 Calma 6 Oeste 0 -- -- 97
2019-07-26 06:00:00 14.5 0 Calma 3 Noroeste 0 -- -- 96
2019-07-26 05:00:00 14.6 3 Noroeste 5 Norte 0 -- -- 95
2019-07-26 04:00:00 14.6 0 Calma 5 Sudeste 0.2 -- -- 94
2019-07-26 03:00:00 14.6 0 Calma 5 Noroeste 0 -- -- 93
2019-07-26 02:00:00 14.4 0 Calma 4 Este 0 -- -- 93
2019-07-26 01:00:00 13.6 0 Calma 6 Sudeste 0 -- -- 94
2019-07-26 00:00:00 13.8 0 Calma 8 Noroeste 0 -- -- 92
2019-07-25 23:00:00 14.7 0 Calma 9 Oeste 0 -- -- 91
2019-07-25 22:00:00 15.7 5 Noroeste 15 Noroeste 0 -- -- 86
2019-07-25 21:00:00 19 4 Noroeste 17 Oeste 0 -- -- 73
2019-07-25 20:00:00 20.3 6 Noroeste 17 Noroeste 0 -- -- 73
2019-07-25 19:00:00 19.5 4 Oeste 14 Norte 0 -- -- 76
2019-07-25 18:00:00 19.4 4 Noroeste 16 Oeste 0 -- -- 79
2019-07-25 17:00:00 18.5 4 Noroeste 12 Oeste 0 -- -- 83
2019-07-25 16:00:00 18.9 5 Oeste 15 Oeste 0 -- -- 84
2019-07-25 15:00:00 17.6 3 Sur 24 Oeste 0 -- -- 87
2019-07-25 14:00:00 17.4 6 Noroeste 19 Noroeste 0.6 -- -- 93
2019-07-25 13:00:00 19.4 4 Sudoeste 22 Sur 0.2 -- -- 89
2019-07-25 12:00:00 22.1 9 Sur 30 Sudeste 0 -- -- 71
2019-07-25 11:00:00 21.2 8 Sur 23 Sur 0 -- -- 73
2019-07-25 10:00:00 20.8 15 Sur 26 Sur 0 -- -- 74
2019-07-25 09:00:00 19.6 4 Sur 9 Sur 0 -- -- 82
2019-07-25 08:00:00 18.2 5 Sur 10 Sudeste 0 -- -- 86
2019-07-25 07:00:00 18.6 3 Sudeste 15 Sur 0 -- -- 87
2019-07-25 06:00:00 18.7 4 Sur 19 Sudeste 0 -- -- 85
2019-07-25 05:00:00 18.3 8 Sur 21 Sur 0 -- -- 87
2019-07-25 04:00:00 17.8 4 Noroeste 10 Este 0 -- -- 80
2019-07-25 03:00:00 18.4 7 Sur 23 Sudeste 0 -- -- 73
2019-07-25 02:00:00 17.1 4 Noroeste 12 Sudeste 0 -- -- 86
2019-07-25 01:00:00 17.8 2 Noroeste 11 Sudeste 0 -- -- 82
2019-07-25 00:00:00 18.1 0 Calma 5 Noroeste 0 -- -- 83
2019-07-24 23:00:00 19.1 0 Calma 11 Sur 0 -- -- 79
2019-07-24 22:00:00 20 2 Noroeste 14 Noroeste 0 -- -- 78
2019-07-24 21:00:00 25 3 Oeste 15 Oeste 0 -- -- 59
2019-07-24 20:00:00 25.7 8 Noroeste 24 Oeste 0 -- -- 57
2019-07-24 19:00:00 28.5 6 Oeste 22 Oeste 0 -- -- 49
2019-07-24 18:00:00 30.3 5 Sudoeste 16 Noroeste 0 -- -- 44
2019-07-24 17:00:00 29 5 Sudoeste 20 Noroeste 0 -- -- 47
2019-07-24 16:00:00 28.5 6 Oeste 21 Oeste 0 -- -- 47
2019-07-24 15:00:00 29 8 Noroeste 22 Noroeste 0 -- -- 42
2019-07-24 14:00:00 26.5 10 Noroeste 19 Noroeste 0 -- -- 57
2019-07-24 13:00:00 25.1 9 Noroeste 18 Noroeste 0 -- -- 62
2019-07-24 12:00:00 23.3 9 Noroeste 13 Noroeste 0 -- -- 67
2019-07-24 11:00:00 23.8 3 Noroeste 8 Norte 0 -- -- 66
2019-07-24 10:00:00 23.2 3 Sudeste 9 Este 0 -- -- 64
2019-07-24 09:00:00 17.2 5 Este 16 Sudeste 0 -- -- 86
2019-07-24 08:00:00 14.3 3 Sudeste 13 Este 0 -- -- 93
2019-07-24 07:00:00 13.7 4 Este 7 Este 0 -- -- 94
2019-07-24 06:00:00 14 5 Sudeste 19 Sudeste 0 -- -- 96
2019-07-24 05:00:00 14 12 Sudeste 18 Sudeste 0 -- -- 96
2019-07-24 04:00:00 14.1 8 Este 13 Este 0 -- -- 96
2019-07-24 03:00:00 15.5 5 Sudeste 8 Este 0 -- -- 96
2019-07-24 02:00:00 15.4 3 Este 5 Este 0 -- -- 96
2019-07-24 01:00:00 16.1 3 Sudeste 5 Sudeste 0 -- -- 94
2019-07-24 00:00:00 17.1 3 Noroeste 8 Noroeste 0 -- -- 89
2019-07-23 23:00:00 18.7 0 Calma 7 Noroeste 0 -- -- 85
2019-07-23 22:00:00 21.4 2 Noroeste 12 Noroeste 0 -- -- 67
2019-07-23 21:00:00 25.3 7 Noroeste 13 Noroeste 0 -- -- 56
2019-07-23 20:00:00 27.7 7 Noroeste 18 Noroeste 0 -- -- 54
2019-07-23 19:00:00 26.5 11 Noroeste 19 Noroeste 0 -- -- 59
2019-07-23 18:00:00 28 9 Noroeste 24 Noroeste 0 -- -- 52
2019-07-23 17:00:00 27.7 12 Noroeste 27 Noroeste 0 -- -- 47
2019-07-23 16:00:00 29 13 Noroeste 27 Noroeste 0 -- -- 47
2019-07-23 15:00:00 28.5 9 Noroeste 22 Oeste 0 -- -- 37
2019-07-23 14:00:00 28.8 5 Noroeste 19 Norte 0 -- -- 52
2019-07-23 13:00:00 25.7 8 Noroeste 18 Noroeste 0 -- -- 70
2019-07-23 12:00:00 23.1 10 Noroeste 18 Noroeste 0 -- -- 77
2019-07-23 11:00:00 23.5 8 Noroeste 13 Noroeste 0 -- -- 81
2019-07-23 10:00:00 23.6 5 Noroeste 10 Sudeste 0 -- -- 82
2019-07-23 09:00:00 19.6 2 Oeste 9 Norte 0 -- -- 94
2019-07-23 08:00:00 18.9 3 Nordeste 10 Este 0 -- -- 97
2019-07-23 07:00:00 18.5 4 Sudeste 8 Noroeste 0 -- -- 96
2019-07-23 06:00:00 20 2 Noroeste 10 Noroeste 0 -- -- 92
2019-07-23 05:00:00 21.7 4 Sudeste 28 Sudeste 0 -- -- 90
2019-07-23 04:00:00 20.6 10 Este 14 Sudeste 0 -- -- 92
2019-07-23 03:00:00 20.1 6 Sudeste 18 Este 0 -- -- 92
2019-07-23 02:00:00 20.1 0 Calma 8 Sudeste 0 -- -- 92
2019-07-23 01:00:00 21.2 2 Este 4 Este 0 -- -- 88
2019-07-23 00:00:00 21.3 0 Calma 4 Noroeste 0 -- -- 89
2019-07-22 23:00:00 22.7 0 Calma 6 Noroeste 0 -- -- 84
2019-07-22 22:00:00 24.9 6 Noroeste 16 Noroeste 0 -- -- 76
2019-07-22 21:00:00 29 10 Noroeste 21 Noroeste 0 -- -- 64
2019-07-22 20:00:00 31.9 10 Noroeste 21 Noroeste 0 -- -- 52
2019-07-22 19:00:00 32.9 11 Noroeste 20 Noroeste 0 -- -- 51
2019-07-22 18:00:00 33.7 8 Noroeste 18 Noroeste 0 -- -- 50
2019-07-22 17:00:00 32.9 8 Noroeste 18 Noroeste 0 -- -- 49
2019-07-22 16:00:00 31.5 10 Noroeste 20 Noroeste 0 -- -- 51
2019-07-22 15:00:00 30.7 9 Noroeste 17 Noroeste 0 -- -- 57
2019-07-22 14:00:00 32 6 Sudoeste 15 Norte 0 -- -- 53
2019-07-22 13:00:00 29.6 6 Este 18 Sudeste 0 -- -- 54
2019-07-22 12:00:00 26.2 9 Sudeste 22 Sur 0 -- -- 64
2019-07-22 11:00:00 22.5 12 Sudeste 21 Sudeste 0 -- -- 73
2019-07-22 10:00:00 19.4 8 Sudeste 22 Este 0 -- -- 84
2019-07-22 09:00:00 16.8 11 Sudeste 23 Sur 0 -- -- 93
2019-07-22 08:00:00 17.1 9 Sudeste 21 Sudeste 0 -- -- 91
2019-07-22 07:00:00 17.2 7 Sudeste 20 Sur 0 -- -- 91
2019-07-22 06:00:00 17.3 8 Sudeste 17 Sudeste 0 -- -- 91
2019-07-22 05:00:00 17.5 7 Sudeste 15 Sudeste 0 -- -- 90
2019-07-22 04:00:00 17.7 5 Sudeste 11 Sudeste 0 -- -- 89
2019-07-22 03:00:00 18 4 Este 13 Sudeste 0 -- -- 89
2019-07-22 02:00:00 17.7 2 Sudeste 10 Sudeste 0 -- -- 89
2019-07-22 01:00:00 17.1 5 Sudeste 15 Este 0 -- -- 90
2019-07-22 00:00:00 17.2 3 Este 10 Sudeste 0 -- -- 87
2019-07-21 23:00:00 18.5 3 Nordeste 10 Nordeste 0 -- -- 82
2019-07-21 22:00:00 20 4 Noroeste 12 Noroeste 0 -- -- 81
2019-07-21 21:00:00 23.4 8 Noroeste 22 Noroeste 0 -- -- 70
2019-07-21 20:00:00 25.3 11 Noroeste 23 Noroeste 0 -- -- 64
2019-07-21 19:00:00 27.1 9 Noroeste 25 Noroeste 0 -- -- 61
2019-07-21 18:00:00 27.7 12 Noroeste 22 Noroeste 0 -- -- 57
2019-07-21 17:00:00 28 11 Noroeste 22 Noroeste 0 -- -- 55
2019-07-21 16:00:00 28.7 6 Norte 17 Nordeste 0 -- -- 47
2019-07-21 15:00:00 26.4 6 Noroeste 20 Noroeste 0 -- -- 51
2019-07-21 14:00:00 25.5 6 Noroeste 19 Noroeste 0 -- -- 56
2019-07-21 13:00:00 24.4 9 Sudeste 18 Sudeste 0 -- -- 62
2019-07-21 12:00:00 22.6 8 Sur 18 Sudeste 0 -- -- 67
2019-07-21 11:00:00 19.8 8 Sudeste 17 Este 0 -- -- 74
2019-07-21 10:00:00 15.8 4 Sudeste 8 Sudeste 0 -- -- 95
2019-07-21 09:00:00 14.2 0 Calma 2 Sur 0 -- -- 97
2019-07-21 08:00:00 13.4 0 Calma 5 Sudeste 0 -- -- 97
2019-07-21 07:00:00 12.7 0 Calma 4 Nordeste 0 -- -- 97
2019-07-21 06:00:00 12.8 0 Calma 4 Nordeste 0 -- -- 95
2019-07-21 05:00:00 13.6 0 Calma 6 Sudeste 0 -- -- 92
2019-07-21 04:00:00 14.3 3 Este 5 Este 0 -- -- 93
2019-07-21 03:00:00 13.9 0 Calma 2 Nordeste 0 -- -- 93
2019-07-21 02:00:00 14.5 0 Calma 2 Oeste 0 -- -- 93
2019-07-21 01:00:00 13.7 0 Calma 2 Nordeste 0 -- -- 93
2019-07-21 00:00:00 14.4 0 Calma 2 Norte 0 -- -- 90
2019-07-20 23:00:00 15.3 0 Calma 6 Noroeste 0 -- -- 86
2019-07-20 22:00:00 17.2 3 Noroeste 15 Noroeste 0 -- -- 80
2019-07-20 21:00:00 18.9 10 Noroeste 19 Noroeste 0 -- -- 75
2019-07-20 20:00:00 22.6 9 Noroeste 24 Noroeste 0 -- -- 68
2019-07-20 19:00:00 25.4 13 Noroeste 23 Noroeste 0 -- -- 58
2019-07-20 18:00:00 26.4 9 Noroeste 24 Noroeste 0 -- -- 52
2019-07-20 17:00:00 25.8 10 Noroeste 24 Noroeste 0 -- -- 52
2019-07-20 16:00:00 26.6 7 Noroeste 26 Norte 0 -- -- 54
2019-07-20 15:00:00 25 9 Noroeste 21 Noroeste 0 -- -- 57
2019-07-20 14:00:00 24.6 6 Norte 19 Noroeste 0 -- -- 55
2019-07-20 13:00:00 24.4 3 Noroeste 13 Noroeste 0 -- -- 55
2019-07-20 12:00:00 23 4 Sudoeste 13 Noroeste 0 -- -- 67
2019-07-20 11:00:00 20.3 5 Noroeste 10 Noroeste 0 -- -- 77
2019-07-20 10:00:00 18.2 5 Sudeste 11 Este 0 -- -- 92
2019-07-20 09:00:00 16.2 3 Sudeste 7 Sudeste 0 -- -- 98
2019-07-20 08:00:00 15.2 2 Sudeste 4 Sur 0 -- -- 97
2019-07-20 07:00:00 15.1 0 Calma 3 Oeste 0 -- -- 97
2019-07-20 06:00:00 15 0 Calma 4 Noroeste 0 -- -- 96
2019-07-20 05:00:00 15.2 3 Norte 6 Este 0 -- -- 94
2019-07-20 04:00:00 15.7 4 Este 6 Este 0 -- -- 93
2019-07-20 03:00:00 16.2 0 Calma 2 Este 0 -- -- 93
2019-07-20 02:00:00 16.6 0 Calma 5 Noroeste 0 -- -- 91
2019-07-20 01:00:00 17 0 Calma 3 Este 0 -- -- 88
2019-07-20 00:00:00 18 0 Calma 2 Nordeste 0 -- -- 85
2019-07-19 23:00:00 18.8 0 Calma 6 Norte 0 -- -- 80
2019-07-19 22:00:00 21.1 4 Noroeste 20 Noroeste 0 -- -- 70
2019-07-19 21:00:00 24 12 Noroeste 24 Noroeste 0 -- -- 60
2019-07-19 20:00:00 26.2 15 Noroeste 24 Noroeste 0 -- -- 53
2019-07-19 19:00:00 27.6 15 Noroeste 27 Norte 0 -- -- 49
2019-07-19 18:00:00 28.5 12 Noroeste 28 Noroeste 0 -- -- 53
2019-07-19 17:00:00 29.9 9 Noroeste 22 Noroeste 0 -- -- 46
2019-07-19 16:00:00 28.3 8 Noroeste 21 Noroeste 0 -- -- 53
2019-07-19 15:00:00 27 9 Noroeste 17 Oeste 0 -- -- 51
2019-07-19 14:00:00 25.7 9 Noroeste 14 Norte 0 -- -- 56
2019-07-19 13:00:00 24.8 6 Noroeste 13 Noroeste 0 -- -- 64
2019-07-19 12:00:00 22.5 6 Noroeste 14 Noroeste 0 -- -- 72
2019-07-19 11:00:00 21.3 4 Noroeste 8 Noroeste 0 -- -- 73
2019-07-19 10:00:00 21.7 2 Sur 10 Este 0 -- -- 69
2019-07-19 09:00:00 14.8 5 Sur 12 Este 0 -- -- 96
2019-07-19 08:00:00 14.3 6 Sudeste 14 Sudeste 0 -- -- 96
2019-07-19 07:00:00 14.7 6 Sur 14 Sudeste 0 -- -- 96
2019-07-19 06:00:00 14.8 7 Sudeste 17 Este 0 -- -- 95
2019-07-19 05:00:00 14.8 6 Sudeste 11 Sur 0 -- -- 95
2019-07-19 04:00:00 16 2 Sudeste 9 Sur 0 -- -- 92
2019-07-19 03:00:00 16.7 2 Sudeste 6 Este 0 -- -- 94
2019-07-19 02:00:00 16.5 0 Calma 3 Noroeste 0 -- -- 95
2019-07-19 01:00:00 16.2 0 Calma 3 Norte 0 -- -- 95
2019-07-19 00:00:00 16.1 0 Calma 6 Noroeste 0 -- -- 95
2019-07-18 23:00:00 16.7 4 Noroeste 11 Noroeste 0 -- -- 92
2019-07-18 22:00:00 19.7 4 Noroeste 17 Noroeste 0 -- -- 81
2019-07-18 21:00:00 23.1 8 Noroeste 18 Noroeste 0 -- -- 69
2019-07-18 20:00:00 24.9 12 Noroeste 24 Noroeste 0 -- -- 64
2019-07-18 19:00:00 26.1 14 Noroeste 27 Noroeste 0 -- -- 60
2019-07-18 18:00:00 27.3 10 Noroeste 24 Noroeste 0 -- -- 57
2019-07-18 17:00:00 27.3 9 Noroeste 19 Noroeste 0 -- -- 56
2019-07-18 16:00:00 26.8 5 Noroeste 18 Noroeste 0 -- -- 55
2019-07-18 15:00:00 25.1 5 Noroeste 21 Noroeste 0 -- -- 57
2019-07-18 14:00:00 24.8 4 Norte 15 Oeste 0 -- -- 57
2019-07-18 13:00:00 22.7 5 Noroeste 15 Noroeste 0 -- -- 59
2019-07-18 12:00:00 22.6 5 Oeste 16 Noroeste 0 -- -- 58
2019-07-18 11:00:00 20.1 5 Noroeste 10 Noroeste 0 -- -- 67
2019-07-18 10:00:00 18.5 3 Noroeste 7 Noroeste 0 -- -- 75
2019-07-18 09:00:00 15.5 2 Sudeste 6 Sudeste 0 -- -- 80
2019-07-18 08:00:00 11.7 4 Este 9 Este 0 -- -- 93
2019-07-18 07:00:00 12.3 8 Sudeste 13 Este 0 -- -- 93
2019-07-18 06:00:00 12.4 7 Sudeste 13 Sudeste 0 -- -- 93
2019-07-18 05:00:00 12 4 Sudeste 8 Sudeste 0 -- -- 94
2019-07-18 04:00:00 11.8 3 Este 7 Nordeste 0 -- -- 95
2019-07-18 03:00:00 11.8 0 Calma 4 Noroeste 0 -- -- 95
2019-07-18 02:00:00 12.6 3 Noroeste 5 Noroeste 0 -- -- 94
2019-07-18 01:00:00 13.3 0 Calma 6 Este 0 -- -- 87
2019-07-18 00:00:00 14.4 4 Este 14 Sudeste 0 -- -- 82